Time;durP1;ratioP1;P1;durP2;ratioP2;P2;SDS_P1;SDS_P2;PMS_P1;PMS_P2;Temp;Humidity;BMP_temperature;BMP_pressure;BME280_temperature;BME280_humidity;BME280_pressure;Samples;Min_cycle;Max_cycle;Signal;HPM_P1;HPM_P2
2021/01/04 00:00:18;;;;;;;19.83;13.50;;;3.00;99.90;;;;;;5017736;28;20053;-82
2021/01/04 00:03:14;;;;;;;16.85;12.75;;;3.00;99.90;;;;;;5019845;28;20081;-81
2021/01/04 00:05:47;;;;;;;17.70;12.63;;;3.00;99.90;;;;;;5019206;28;20522;-82
2021/01/04 00:08:47;;;;;;;19.10;13.48;;;2.90;99.90;;;;;;5014006;28;20077;-80
2021/01/04 00:11:28;;;;;;;16.95;12.48;;;2.90;99.90;;;;;;5015560;28;20042;-80
2021/01/04 00:14:05;;;;;;;18.80;12.80;;;2.90;99.90;;;;;;5015498;28;20057;-79
2021/01/04 00:16:42;;;;;;;18.58;12.73;;;2.90;99.90;;;;;;5017953;28;20074;-80
2021/01/04 00:19:15;;;;;;;18.17;13.25;;;2.90;99.90;;;;;;5015288;28;20119;-80
2021/01/04 00:21:47;;;;;;;;;;;2.90;99.90;;;;;;5015988;28;20110;-79
2021/01/04 00:24:24;;;;;;;17.50;12.25;;;2.80;99.90;;;;;;5018752;28;19921;-81
2021/01/04 00:26:56;;;;;;;16.67;11.93;;;2.80;99.90;;;;;;5019811;28;20077;-81
2021/01/04 00:29:23;;;;;;;16.83;11.33;;;2.70;99.90;;;;;;5019628;28;20149;-80
2021/01/04 00:31:53;;;;;;;15.15;11.02;;;2.70;99.90;;;;;;5017921;28;20372;-79
2021/01/04 00:34:22;;;;;;;13.43;10.45;;;2.70;99.90;;;;;;5022904;28;20100;-80
2021/01/04 00:37:11;;;;;;;14.52;10.73;;;2.70;99.90;;;;;;5016515;28;20137;-79
2021/01/04 00:39:50;;;;;;;14.63;10.45;;;2.70;99.90;;;;;;5015467;28;20085;-79
2021/01/04 00:42:30;;;;;;;13.90;10.05;;;2.70;99.90;;;;;;5015525;28;20128;-79
2021/01/04 00:45:05;;;;;;;13.27;9.98;;;2.70;99.90;;;;;;5016876;28;20045;-79
2021/01/04 00:47:40;;;;;;;12.38;9.38;;;2.80;99.90;;;;;;5016933;28;20108;-79
2021/01/04 00:50:16;;;;;;;12.80;9.90;;;2.60;99.90;;;;;;5017726;28;20082;-80
2021/01/04 00:52:49;;;;;;;13.82;9.93;;;2.60;99.90;;;;;;5017727;28;20381;-81
2021/01/04 00:55:28;;;;;;;15.40;10.45;;;2.60;99.90;;;;;;5018642;28;20541;-82
2021/01/04 00:58:23;;;;;;;13.32;9.60;;;2.70;99.90;;;;;;5015090;28;20058;-80
2021/01/04 01:00:54;;;;;;;13.82;10.20;;;2.70;99.90;;;;;;5014610;28;20192;-79
2021/01/04 01:03:54;;;;;;;14.38;10.48;;;2.70;99.90;;;;;;5015374;28;20074;-79
2021/01/04 01:06:27;;;;;;;13.27;9.35;;;2.70;99.90;;;;;;5016190;28;20046;-80
2021/01/04 01:08:55;;;;;;;14.27;9.98;;;2.70;99.90;;;;;;5017246;28;20133;-81
2021/01/04 01:11:31;;;;;;;13.32;10.25;;;2.70;99.90;;;;;;5016194;28;20333;-80
2021/01/04 01:14:05;;;;;;;13.32;10.02;;;2.70;99.90;;;;;;5017541;28;20375;-78
2021/01/04 01:17:19;;;;;;;12.85;9.88;;;2.70;99.90;;;;;;5016451;28;20533;-78
2021/01/04 01:19:48;;;;;;;12.95;9.93;;;2.70;99.90;;;;;;5020459;28;20081;-78
2021/01/04 01:22:24;;;;;;;12.35;9.68;;;2.80;99.90;;;;;;5025759;28;20486;-80
2021/01/04 01:24:51;;;;;;;11.77;9.07;;;2.70;99.90;;;;;;5029182;28;20081;-79
2021/01/04 01:27:39;;;;;;;13.25;9.68;;;2.80;99.90;;;;;;5028150;28;20120;-79
2021/01/04 01:30:30;;;;;;;12.13;9.68;;;2.70;99.90;;;;;;5026950;28;20108;-78
2021/01/04 01:33:34;;;;;;;12.32;9.00;;;2.70;99.90;;;;;;5030059;28;20085;-79
2021/01/04 01:36:03;;;;;;;;;;;2.70;99.90;;;;;;5029879;28;20065;-78
2021/01/04 01:39:17;;;;;;;12.50;8.85;;;2.70;99.90;;;;;;5030521;28;19933;-80
2021/01/04 01:42:19;;;;;;;13.13;8.57;;;2.60;99.90;;;;;;4976515;28;20041;-81
2021/01/04 01:44:50;;;;;;;13.02;9.73;;;2.70;99.90;;;;;;5037185;28;20054;-82
2021/01/04 01:47:29;;;;;;;11.50;9.25;;;2.70;99.90;;;;;;5030087;28;20077;-81
2021/01/04 01:50:05;;;;;;;13.15;9.30;;;2.70;99.90;;;;;;5020810;28;20096;-80
2021/01/04 01:52:43;;;;;;;12.25;8.50;;;2.70;99.90;;;;;;5020253;28;20511;-80
2021/01/04 01:55:31;;;;;;;11.30;8.82;;;2.70;99.90;;;;;;5020005;28;20081;-80
2021/01/04 01:58:41;;;;;;;14.20;9.57;;;2.80;99.90;;;;;;5021017;28;20212;-81
2021/01/04 02:01:15;;;;;;;11.65;8.93;;;2.80;99.90;;;;;;5020965;28;20065;-81
2021/01/04 02:03:48;;;;;;;13.05;8.98;;;2.80;99.90;;;;;;5021095;28;20155;-81
2021/01/04 02:06:35;;;;;;;11.32;8.95;;;2.80;99.90;;;;;;5021202;28;20141;-82
2021/01/04 02:09:06;;;;;;;12.10;8.95;;;2.80;99.90;;;;;;5018176;28;20156;-82
2021/01/04 02:11:45;;;;;;;13.38;9.65;;;2.80;99.90;;;;;;5020980;28;20092;-81
2021/01/04 02:14:16;;;;;;;13.20;9.95;;;2.70;99.90;;;;;;5021856;28;20085;-81
2021/01/04 02:16:59;;;;;;;12.77;9.43;;;2.80;99.90;;;;;;5020750;28;20042;-82
2021/01/04 02:19:39;;;;;;;12.52;9.48;;;2.70;99.90;;;;;;5020693;28;20100;-82
2021/01/04 02:22:42;;;;;;;12.25;9.57;;;2.80;99.90;;;;;;5020681;28;20053;-82
2021/01/04 02:25:09;;;;;;;13.52;9.05;;;2.80;99.90;;;;;;5023906;28;20547;-80
2021/01/04 02:27:40;;;;;;;13.23;9.43;;;2.90;99.90;;;;;;5025345;28;20045;-80
2021/01/04 02:30:08;;;;;;;13.23;9.55;;;2.80;99.90;;;;;;5022477;28;20077;-80
2021/01/04 02:32:34;;;;;;;11.88;8.85;;;2.80;99.90;;;;;;5021693;28;20134;-80
2021/01/04 02:35:01;;;;;;;12.55;9.50;;;2.80;99.90;;;;;;5020860;28;20529;-81
2021/01/04 02:37:27;;;;;;;13.55;9.52;;;2.80;99.90;;;;;;5021343;28;20104;-81
2021/01/04 02:39:58;;;;;;;12.93;9.73;;;2.80;99.90;;;;;;5021432;28;20133;-80
2021/01/04 02:42:27;;;;;;;12.40;9.10;;;2.80;99.90;;;;;;5020525;28;20081;-81
2021/01/04 02:44:55;;;;;;;13.05;9.57;;;2.80;99.90;;;;;;5021694;28;20129;-81
2021/01/04 02:47:44;;;;;;;12.88;9.30;;;2.80;99.90;;;;;;5020370;28;20515;-81
2021/01/04 02:50:30;;;;;;;12.80;9.50;;;2.80;99.90;;;;;;5020620;28;20131;-81
2021/01/04 02:53:26;;;;;;;13.73;9.63;;;2.80;99.90;;;;;;5019048;28;20089;-80
2021/01/04 02:56:03;;;;;;;12.13;9.38;;;2.90;99.90;;;;;;5018289;28;20046;-82
2021/01/04 02:58:41;;;;;;;13.45;9.35;;;2.90;99.90;;;;;;5019720;28;20105;-82
2021/01/04 03:01:12;;;;;;;13.65;10.02;;;2.90;99.90;;;;;;5018940;28;20133;-80
2021/01/04 03:03:40;;;;;;;13.27;9.75;;;2.90;99.90;;;;;;5017942;28;20087;-80
2021/01/04 03:06:11;;;;;;;13.45;9.80;;;2.90;99.90;;;;;;5017218;28;20140;-81
2021/01/04 03:08:38;;;;;;;14.05;10.23;;;2.80;99.90;;;;;;5018149;28;20183;-81
2021/01/04 03:11:08;;;;;;;14.77;10.10;;;2.90;99.90;;;;;;5018215;28;20085;-80
2021/01/04 03:13:55;;;;;;;13.00;9.95;;;2.90;99.90;;;;;;5019236;28;20050;-81
2021/01/04 03:16:30;;;;;;;13.52;9.98;;;2.90;99.90;;;;;;5019276;28;20494;-82
2021/01/04 03:19:02;;;;;;;12.70;9.82;;;2.90;99.90;;;;;;5019095;28;20132;-81
2021/01/04 03:21:29;;;;;;;13.93;10.38;;;2.90;99.90;;;;;;5019042;28;20101;-81
2021/01/04 03:23:57;;;;;;;14.10;10.40;;;2.80;99.90;;;;;;5019462;28;20096;-81
2021/01/04 03:26:26;;;;;;;13.02;9.75;;;2.80;99.90;;;;;;5023751;28;20081;-81
2021/01/04 03:28:53;;;;;;;14.77;10.68;;;2.90;99.90;;;;;;5015294;28;20132;-81
2021/01/04 03:31:20;;;;;;;14.30;10.50;;;2.80;99.90;;;;;;5018879;28;20081;-82
2021/01/04 03:33:47;;;;;;;12.80;10.05;;;2.90;99.90;;;;;;5020161;28;20125;-82
2021/01/04 03:36:14;;;;;;;15.27;11.02;;;2.90;99.90;;;;;;5019563;28;20129;-81
2021/01/04 03:38:41;;;;;;;15.52;11.23;;;2.80;99.90;;;;;;5017671;28;20092;-82
2021/01/04 03:41:08;;;;;;;15.13;11.25;;;2.80;99.90;;;;;;5042012;23;20179;-77
2021/01/04 03:43:34;;;;;;;15.23;10.85;;;2.90;99.90;;;;;;5032526;28;20128;-80
2021/01/04 03:46:05;;;;;;;14.50;10.88;;;2.80;99.90;;;;;;5036882;28;20045;-81
2021/01/04 03:48:31;;;;;;;14.35;10.57;;;2.90;99.90;;;;;;5039106;28;20080;-81
2021/01/04 03:50:57;;;;;;;17.08;11.80;;;2.90;99.90;;;;;;5035962;28;20085;-79
2021/01/04 03:53:24;;;;;;;14.60;10.65;;;2.80;99.90;;;;;;5037474;28;20093;-82
2021/01/04 03:55:50;;;;;;;15.38;11.27;;;2.90;99.90;;;;;;5039101;28;20049;-79
2021/01/04 03:58:16;;;;;;;16.90;11.43;;;3.00;99.90;;;;;;5036276;28;20103;-79
2021/01/04 04:00:43;;;;;;;15.25;10.88;;;2.90;99.90;;;;;;5036219;28;20088;-79
2021/01/04 04:03:10;;;;;;;14.25;10.52;;;2.90;99.90;;;;;;5036911;28;20091;-80
2021/01/04 04:05:37;;;;;;;14.35;10.73;;;2.90;99.90;;;;;;5038278;28;20077;-80
2021/01/04 04:08:04;;;;;;;15.63;11.00;;;2.90;99.90;;;;;;5037159;28;20049;-79
2021/01/04 04:10:31;;;;;;;16.83;11.02;;;2.90;99.90;;;;;;5036752;28;20068;-79
2021/01/04 04:12:58;;;;;;;13.98;10.68;;;2.90;99.90;;;;;;5035762;28;20509;-79
2021/01/04 04:15:25;;;;;;;13.82;10.55;;;2.90;99.90;;;;;;5035389;28;20478;-79
2021/01/04 04:17:52;;;;;;;15.13;10.82;;;2.90;99.90;;;;;;5036585;28;20144;-79
2021/01/04 04:20:21;;;;;;;15.10;10.93;;;2.80;99.90;;;;;;5039077;28;20081;-80
2021/01/04 04:22:48;;;;;;;14.68;10.30;;;2.80;99.90;;;;;;5040072;28;20076;-79
2021/01/04 04:25:16;;;;;;;14.65;10.63;;;2.80;99.90;;;;;;5038137;28;20103;-79
2021/01/04 04:27:43;;;;;;;13.80;10.13;;;2.80;99.90;;;;;;5038790;28;20061;-79
2021/01/04 04:30:12;;;;;;;14.48;10.35;;;2.90;99.90;;;;;;5037744;28;20076;-79
2021/01/04 04:32:38;;;;;;;14.35;10.15;;;2.90;99.90;;;;;;5037334;28;20073;-80
2021/01/04 04:35:06;;;;;;;15.20;10.60;;;2.80;99.90;;;;;;5037612;28;20095;-79
2021/01/04 04:37:34;;;;;;;14.13;10.07;;;2.90;99.90;;;;;;5039791;28;20081;-81
2021/01/04 04:40:00;;;;;;;14.65;10.43;;;2.90;99.90;;;;;;5039602;28;20084;-81
2021/01/04 04:42:26;;;;;;;13.13;9.73;;;2.90;99.90;;;;;;5036664;28;20073;-79
2021/01/04 04:44:59;;;;;;;14.60;10.32;;;2.90;99.90;;;;;;5036692;28;20045;-79
2021/01/04 04:47:32;;;;;;;;;;;2.90;99.90;;;;;;5037025;28;20041;-79
2021/01/04 04:50:12;;;;;;;12.95;9.50;;;2.90;99.90;;;;;;5039063;28;19981;-79
2021/01/04 04:53:18;;;;;;;14.85;10.75;;;2.80;99.90;;;;;;5040124;28;20143;-79
2021/01/04 04:56:03;;;;;;;14.70;10.15;;;2.80;99.90;;;;;;5032146;28;20129;-80
2021/01/04 04:58:41;;;;;;;12.77;8.93;;;2.90;99.90;;;;;;5038309;28;20049;-80
2021/01/04 05:01:23;;;;;;;15.20;10.63;;;2.80;99.90;;;;;;5038243;28;20088;-79
2021/01/04 05:04:12;;;;;;;13.20;8.98;;;2.80;99.90;;;;;;5038129;28;20056;-80
2021/01/04 05:06:45;;;;;;;14.90;10.50;;;2.80;99.90;;;;;;5038485;28;20072;-81
2021/01/04 05:09:48;;;;;;;14.50;10.40;;;2.80;99.90;;;;;;5038530;28;20060;-81
2021/01/04 05:12:27;;;;;;;15.00;9.97;;;2.80;99.90;;;;;;4996739;28;20518;-79
2021/01/04 05:15:00;;;;;;;13.80;10.15;;;2.90;99.90;;;;;;5029671;28;20071;-79
2021/01/04 05:17:49;;;;;;;14.88;10.48;;;2.90;99.90;;;;;;5035696;28;20401;-80
2021/01/04 05:20:53;;;;;;;16.08;10.48;;;2.90;99.90;;;;;;5034836;28;20592;-79
2021/01/04 05:23:51;;;;;;;14.68;10.30;;;2.90;99.90;;;;;;5036972;28;20081;-79
2021/01/04 05:26:45;;;;;;;14.60;10.15;;;2.90;99.90;;;;;;5037629;28;20087;-79
2021/01/04 05:29:27;;;;;;;;;;;2.90;99.90;;;;;;5036842;28;20286;-81
2021/01/04 05:32:18;;;;;;;15.10;10.48;;;2.80;99.90;;;;;;5037501;28;19967;-82
2021/01/04 05:34:47;;;;;;;13.98;10.35;;;2.80;99.90;;;;;;5038574;28;20076;-81
2021/01/04 05:37:37;;;;;;;12.50;9.23;;;2.70;99.90;;;;;;5037754;28;20146;-82
2021/01/04 05:40:49;;;;;;;14.30;9.75;;;2.80;99.90;;;;;;5039146;28;20053;-80
2021/01/04 05:43:27;;;;;;;13.95;9.98;;;2.80;99.90;;;;;;5039145;28;20513;-80
2021/01/04 05:46:01;;;;;;;14.02;10.05;;;2.90;99.90;;;;;;5039668;28;20049;-80
2021/01/04 05:48:42;;;;;;;15.05;10.52;;;2.90;99.90;;;;;;5038338;28;20414;-81
2021/01/04 05:51:17;;;;;;;15.07;10.60;;;2.90;99.90;;;;;;5037830;28;20057;-81
2021/01/04 05:53:45;;;;;;;15.05;10.45;;;2.90;99.90;;;;;;5039957;28;20425;-83
2021/01/04 05:56:19;;;;;;;13.45;9.60;;;2.90;99.90;;;;;;5038705;28;20165;-81
2021/01/04 05:58:45;;;;;;;13.27;9.18;;;2.90;99.90;;;;;;5038012;28;20053;-82
2021/01/04 06:01:15;;;;;;;13.95;9.77;;;3.00;99.90;;;;;;5037530;28;20536;-83
2021/01/04 06:03:43;;;;;;;13.90;9.57;;;2.90;99.90;;;;;;5038734;28;20088;-82
2021/01/04 06:06:13;;;;;;;13.52;9.15;;;2.90;99.90;;;;;;5040086;28;20050;-83
2021/01/04 06:08:39;;;;;;;15.05;10.18;;;3.00;99.90;;;;;;4997787;28;20054;-84
2021/01/04 06:11:08;;;;;;;13.63;9.38;;;3.00;99.90;;;;;;5003343;28;20073;-80
2021/01/04 06:13:39;;;;;;;12.82;9.30;;;3.00;99.90;;;;;;5003333;28;20137;-83
2021/01/04 06:16:10;;;;;;;12.85;9.77;;;3.00;99.90;;;;;;5003045;28;20046;-83
2021/01/04 06:18:44;;;;;;;13.52;9.23;;;2.90;99.90;;;;;;5003432;28;20086;-81
2021/01/04 06:21:31;;;;;;;13.60;9.77;;;2.90;99.90;;;;;;5001992;28;20137;-82
2021/01/04 06:24:01;;;;;;;14.70;9.93;;;2.90;99.90;;;;;;5003804;28;20058;-82
2021/01/04 06:26:28;;;;;;;13.45;9.57;;;2.90;99.90;;;;;;5004314;28;20046;-82
2021/01/04 06:28:57;;;;;;;14.27;9.57;;;2.90;99.90;;;;;;5004564;28;20057;-83
2021/01/04 06:31:43;;;;;;;12.43;8.93;;;2.80;99.90;;;;;;5001744;28;20060;-79
2021/01/04 06:34:20;;;;;;;14.00;9.43;;;2.90;99.90;;;;;;5002852;28;20137;-81
2021/01/04 06:36:50;;;;;;;13.98;9.65;;;2.90;99.90;;;;;;5001312;28;20047;-81
2021/01/04 06:39:23;;;;;;;12.75;9.27;;;2.90;99.90;;;;;;5002202;28;20093;-82
2021/01/04 06:41:50;;;;;;;14.63;10.10;;;2.90;99.90;;;;;;5001555;28;20551;-81
2021/01/04 06:44:20;;;;;;;13.73;10.07;;;2.90;99.90;;;;;;5002344;28;20061;-81
2021/01/04 06:47:31;;;;;;;11.93;9.07;;;2.90;99.90;;;;;;5001478;28;20051;-82
2021/01/04 06:50:06;;;;;;;13.38;9.35;;;2.90;99.90;;;;;;4985366;28;20492;-82
2021/01/04 06:53:11;;;;;;;14.10;9.45;;;2.90;99.90;;;;;;5001791;28;20081;-82
2021/01/04 06:56:22;;;;;;;14.38;10.35;;;2.90;99.90;;;;;;5003681;28;20053;-83
2021/01/04 06:59:25;;;;;;;14.23;9.65;;;2.90;99.90;;;;;;5005891;28;20142;-82
2021/01/04 07:02:29;;;;;;;15.55;10.40;;;2.90;99.90;;;;;;4973624;28;20145;-82
2021/01/04 07:05:28;;;;;;;15.85;10.20;;;2.80;99.90;;;;;;5005214;28;20073;-83
2021/01/04 07:08:19;;;;;;;14.95;10.18;;;2.80;99.90;;;;;;4997790;28;20137;-82
2021/01/04 07:11:04;;;;;;;16.33;9.98;;;2.90;99.90;;;;;;5001431;28;20042;-82
2021/01/04 07:13:43;;;;;;;16.55;10.02;;;2.90;99.90;;;;;;5002985;28;20050;-81
2021/01/04 07:16:49;;;;;;;15.70;10.05;;;2.80;99.90;;;;;;5003166;28;20051;-81
2021/01/04 07:19:40;;;;;;;15.85;9.88;;;2.80;99.90;;;;;;5001223;28;20054;-81
2021/01/04 07:22:15;;;;;;;17.80;10.50;;;2.80;99.90;;;;;;5001884;28;20062;-81
2021/01/04 07:24:55;;;;;;;14.57;10.15;;;2.80;99.90;;;;;;5002276;28;20105;-83
2021/01/04 07:27:34;;;;;;;14.30;10.32;;;2.80;99.90;;;;;;5001941;28;20050;-83
2021/01/04 07:30:13;;;;;;;15.65;10.98;;;2.90;99.90;;;;;;5002736;28;20081;-83
2021/01/04 07:32:58;;;;;;;14.98;10.00;;;2.90;99.90;;;;;;5003193;28;20077;-83
2021/01/04 07:35:31;;;;;;;15.82;11.63;;;2.80;99.90;;;;;;5003384;28;20104;-83
2021/01/04 07:38:05;;;;;;;;;;;2.90;99.90;;;;;;5003622;28;20431;-83
2021/01/04 07:40:56;;;;;;;15.35;10.82;;;2.80;99.90;;;;;;5002182;28;19926;-82
2021/01/04 07:43:57;;;;;;;15.80;11.27;;;2.80;99.90;;;;;;5000995;28;20085;-83
2021/01/04 07:47:08;;;;;;;17.30;11.63;;;2.80;99.90;;;;;;5002386;28;20070;-83
2021/01/04 07:50:05;;;;;;;17.73;11.23;;;2.90;99.90;;;;;;5001860;28;20054;-81
2021/01/04 07:53:05;;;;;;;17.63;11.63;;;2.90;99.90;;;;;;5003339;28;20520;-83
2021/01/04 07:56:03;;;;;;;16.58;11.38;;;2.90;99.90;;;;;;5001528;28;20514;-82
2021/01/04 07:59:09;;;;;;;19.30;13.02;;;2.90;99.90;;;;;;5000685;28;20078;-82
2021/01/04 08:02:15;;;;;;;17.77;12.32;;;3.00;99.90;;;;;;4994634;28;20093;-83
2021/01/04 08:05:17;;;;;;;16.75;11.68;;;3.00;99.90;;;;;;5000605;28;20088;-82
2021/01/04 08:08:14;;;;;;;21.42;13.40;;;3.00;99.90;;;;;;5001464;28;20499;-84
2021/01/04 08:11:07;;;;;;;20.38;13.52;;;3.00;99.90;;;;;;5002638;28;20561;-82
2021/01/04 08:14:28;;;;;;;19.45;13.13;;;3.00;99.90;;;;;;5002368;28;20093;-82
2021/01/04 08:16:59;;;;;;;19.13;12.77;;;3.00;99.90;;;;;;5005354;28;20069;-83
2021/01/04 08:19:27;;;;;;;20.17;13.55;;;3.00;99.90;;;;;;5006325;28;20106;-82
2021/01/04 08:22:09;;;;;;;20.58;13.40;;;3.00;99.90;;;;;;5004442;28;20065;-83
2021/01/04 08:24:41;;;;;;;18.98;13.27;;;3.00;99.90;;;;;;5003449;28;20054;-83
2021/01/04 08:27:18;;;;;;;20.67;13.77;;;3.00;99.90;;;;;;5003757;28;20054;-82
2021/01/04 08:29:58;;;;;;;20.80;13.73;;;3.00;99.90;;;;;;5003617;28;20054;-82
2021/01/04 08:32:32;;;;;;;20.77;14.23;;;3.10;99.90;;;;;;4983972;28;20047;-83
2021/01/04 08:35:09;;;;;;;21.92;14.40;;;3.00;99.90;;;;;;4983996;28;20086;-84
2021/01/04 08:37:40;;;;;;;21.13;14.55;;;3.00;99.90;;;;;;4982476;28;20089;-81
2021/01/04 08:40:20;;;;;;;21.50;13.85;;;3.00;99.90;;;;;;4982666;28;20082;-82
2021/01/04 08:42:59;;;;;;;21.48;13.98;;;3.00;99.90;;;;;;4982795;28;20047;-82
2021/01/04 08:45:36;;;;;;;19.95;14.18;;;3.00;99.90;;;;;;4983344;28;20082;-82
2021/01/04 08:48:14;;;;;;;20.33;14.40;;;3.00;99.90;;;;;;4983009;28;20047;-82
2021/01/04 08:53:18;;;;;;;22.27;14.40;;;3.20;99.90;;;;;;5021015;23;20499;-83
2021/01/04 08:55:45;;;;;;;22.92;15.13;;;3.10;99.90;;;;;;5019712;28;20081;-83
2021/01/04 08:58:28;;;;;;;20.38;14.43;;;3.10;99.90;;;;;;5022557;28;20050;-84
2021/01/04 09:00:59;;;;;;;18.77;12.73;;;3.10;99.90;;;;;;5021355;28;20049;-83
2021/01/04 09:03:27;;;;;;;21.15;14.25;;;3.10;99.90;;;;;;5026487;28;20109;-84
2021/01/04 09:08:30;;;;;;;22.83;15.05;;;3.10;99.90;;;;;;4999127;28;20117;-81
2021/01/04 09:11:06;;;;;;;21.98;14.75;;;3.10;99.90;;;;;;4990623;28;20086;-80
2021/01/04 09:13:36;;;;;;;20.02;13.60;;;3.10;99.90;;;;;;4995591;28;20082;-82
2021/01/04 09:16:15;;;;;;;22.00;14.52;;;3.20;99.90;;;;;;4981629;28;20082;-80
2021/01/04 09:18:45;;;;;;;20.88;14.18;;;3.20;99.90;;;;;;4976300;28;20134;-79
2021/01/04 09:21:33;;;;;;;21.70;14.80;;;3.20;99.90;;;;;;4976530;28;20130;-79
2021/01/04 09:24:10;;;;;;;23.13;15.07;;;3.10;99.90;;;;;;4976656;28;20047;-79
2021/01/04 09:26:39;;;;;;;21.40;14.75;;;3.10;99.90;;;;;;4975492;28;20051;-79
2021/01/04 09:29:18;;;;;;;22.45;13.68;;;3.20;99.90;;;;;;4975635;28;20054;-80
2021/01/04 09:31:46;;;;;;;21.77;14.32;;;3.20;99.90;;;;;;4975888;28;20101;-80
2021/01/04 09:34:14;;;;;;;20.85;14.45;;;3.20;99.90;;;;;;4976121;28;20161;-80
2021/01/04 09:36:40;;;;;;;22.33;14.68;;;3.20;99.90;;;;;;4974808;28;20047;-79
2021/01/04 09:39:09;;;;;;;19.77;14.35;;;3.20;99.90;;;;;;4975265;28;20086;-79
2021/01/04 09:41:36;;;;;;;21.48;13.48;;;3.20;99.90;;;;;;4978663;28;20456;-81
2021/01/04 09:44:04;;;;;;;20.88;13.88;;;3.20;99.90;;;;;;4972364;28;20062;-79
2021/01/04 09:46:43;;;;;;;19.45;13.73;;;3.20;99.90;;;;;;4975248;28;20085;-78
2021/01/04 09:49:14;;;;;;;21.73;13.27;;;3.20;99.90;;;;;;4975758;28;20089;-79
2021/01/04 09:51:43;;;;;;;19.48;13.77;;;3.20;99.90;;;;;;4976824;28;20083;-79
2021/01/04 09:54:15;;;;;;;21.85;14.00;;;3.20;99.90;;;;;;4976415;28;20043;-80
2021/01/04 09:56:41;;;;;;;19.10;13.63;;;3.20;99.90;;;;;;4973693;28;20078;-79
2021/01/04 09:59:12;;;;;;;19.77;13.95;;;3.20;99.90;;;;;;4975822;28;20472;-80
2021/01/04 10:01:46;;;;;;;19.83;14.00;;;3.20;99.90;;;;;;4976158;28;20122;-80
2021/01/04 10:04:13;;;;;;;21.00;13.38;;;3.10;99.90;;;;;;4975977;28;20444;-80
2021/01/04 10:06:40;;;;;;;21.17;13.27;;;3.20;99.90;;;;;;4975505;28;20050;-79
2021/01/04 10:09:14;;;;;;;20.52;13.95;;;3.20;99.90;;;;;;4975759;28;20134;-80
2021/01/04 10:11:44;;;;;;;18.55;13.57;;;3.20;99.90;;;;;;4973462;28;20109;-78
2021/01/04 10:14:13;;;;;;;19.33;13.73;;;3.20;99.90;;;;;;4975460;28;20397;-80
2021/01/04 10:16:43;;;;;;;20.60;13.65;;;3.20;99.90;;;;;;4975088;28;20076;-79
2021/01/04 10:19:15;;;;;;;19.85;13.60;;;3.30;99.90;;;;;;4975464;28;20082;-80
2021/01/04 10:21:51;;;;;;;25.47;17.30;;;3.20;99.90;;;;;;4970189;28;20122;-78
2021/01/04 10:24:22;;;;;;;20.52;13.60;;;3.20;99.90;;;;;;4974201;28;20973;-77
2021/01/04 10:26:50;;;;;;;31.73;23.58;;;3.10;99.90;;;;;;4976034;28;20134;-79
2021/01/04 10:29:20;;;;;;;21.85;15.93;;;3.20;99.90;;;;;;4977471;28;20090;-79
2021/01/04 10:31:48;;;;;;;20.80;13.93;;;3.30;99.90;;;;;;4974970;28;20142;-80
2021/01/04 10:34:18;;;;;;;18.73;13.82;;;3.30;99.90;;;;;;4981766;28;20047;-79
2021/01/04 10:36:57;;;;;;;23.90;17.10;;;3.30;99.90;;;;;;4976852;28;20081;-79
2021/01/04 10:39:31;;;;;;;22.42;16.05;;;3.30;99.90;;;;;;4976241;28;20051;-79
2021/01/04 10:42:11;;;;;;;22.63;15.48;;;3.30;99.90;;;;;;4974125;28;20062;-80
2021/01/04 10:44:38;;;;;;;19.98;14.52;;;3.40;99.90;;;;;;4974105;28;20142;-79
2021/01/04 10:47:17;;;;;;;18.98;13.85;;;3.40;99.90;;;;;;4976462;28;20590;-78
2021/01/04 10:49:44;;;;;;;20.05;13.63;;;3.30;99.90;;;;;;4975671;28;20111;-78
2021/01/04 10:52:19;;;;;;;19.42;14.30;;;3.30;99.90;;;;;;4973387;28;20130;-79
2021/01/04 10:54:45;;;;;;;20.88;13.73;;;3.30;99.90;;;;;;4975101;28;20054;-78
2021/01/04 10:57:24;;;;;;;18.50;13.25;;;3.20;99.90;;;;;;4976063;28;20070;-78
2021/01/04 11:00:01;;;;;;;21.70;14.85;;;3.20;99.90;;;;;;4971742;28;20127;-80
2021/01/04 11:02:38;;;;;;;20.70;13.63;;;3.20;99.90;;;;;;4978765;28;20047;-78
2021/01/04 11:05:07;;;;;;;19.10;14.23;;;3.30;99.90;;;;;;4976327;28;20089;-77
2021/01/04 11:07:33;;;;;;;18.15;13.35;;;3.30;99.90;;;;;;4977871;28;20106;-80
2021/01/04 11:10:11;;;;;;;17.90;12.85;;;3.30;99.90;;;;;;4976755;28;20094;-78
2021/01/04 11:12:46;;;;;;;18.63;13.48;;;3.30;99.90;;;;;;4974161;28;20083;-79
2021/01/04 11:15:23;;;;;;;19.10;12.88;;;3.30;99.90;;;;;;4979824;28;20054;-81
2021/01/04 11:17:58;;;;;;;18.55;13.95;;;3.30;99.90;;;;;;4979756;28;20133;-78
2021/01/04 11:20:25;;;;;;;17.98;13.18;;;3.40;99.90;;;;;;4978362;28;20623;-79
2021/01/04 11:23:02;;;;;;;18.45;13.43;;;3.40;99.90;;;;;;4978309;28;20595;-79
2021/01/04 11:25:29;;;;;;;19.90;14.13;;;3.40;99.90;;;;;;4973146;28;20133;-80
2021/01/04 11:27:55;;;;;;;19.33;13.82;;;3.40;99.90;;;;;;4980295;28;20070;-80
2021/01/04 11:30:23;;;;;;;19.60;13.70;;;3.50;99.90;;;;;;4978056;28;20186;-79
2021/01/04 11:32:49;;;;;;;19.60;13.27;;;3.50;99.90;;;;;;4970586;28;20038;-79
2021/01/04 11:35:17;;;;;;;18.58;13.40;;;3.40;99.90;;;;;;4972566;28;20050;-80
2021/01/04 11:37:44;;;;;;;19.65;13.18;;;3.40;99.90;;;;;;4963586;28;20076;-79
2021/01/04 11:40:12;;;;;;;18.75;13.55;;;3.40;99.90;;;;;;4957627;28;20162;-80
2021/01/04 11:42:39;;;;;;;22.02;13.82;;;3.40;99.90;;;;;;4965844;28;20154;-79
2021/01/04 11:45:08;;;;;;;19.73;14.05;;;3.40;99.90;;;;;;4964634;28;20126;-80
2021/01/04 11:47:35;;;;;;;19.23;13.48;;;3.50;99.90;;;;;;4973426;28;20133;-79
2021/01/04 11:50:04;;;;;;;18.83;12.80;;;3.50;99.90;;;;;;4964204;28;20137;-79
2021/01/04 11:52:30;;;;;;;18.80;13.73;;;3.40;99.90;;;;;;4974249;28;20058;-78
2021/01/04 11:54:57;;;;;;;21.02;14.68;;;3.50;99.90;;;;;;4969054;28;20093;-79
2021/01/04 11:57:24;;;;;;;22.23;15.98;;;3.50;99.90;;;;;;4970638;28;20130;-80
2021/01/04 11:59:50;;;;;;;21.67;17.48;;;3.50;99.90;;;;;;4967252;28;20563;-79
2021/01/04 12:02:16;;;;;;;26.58;17.40;;;3.50;99.90;;;;;;4969542;28;20531;-79
2021/01/04 12:04:44;;;;;;;22.02;15.38;;;3.50;99.90;;;;;;4954697;28;20145;-80
2021/01/04 12:07:10;;;;;;;21.30;14.88;;;3.50;99.90;;;;;;4964698;28;20789;-79
2021/01/04 12:09:38;;;;;;;22.10;13.65;;;3.40;99.90;;;;;;4972123;28;20133;-79
2021/01/04 12:12:06;;;;;;;21.55;13.65;;;3.30;99.90;;;;;;4963132;28;20082;-78
2021/01/04 12:14:33;;;;;;;19.27;12.98;;;3.40;99.90;;;;;;4971965;28;20070;-80
2021/01/04 12:17:03;;;;;;;18.05;12.70;;;3.40;99.90;;;;;;4971576;28;20053;-80
2021/01/04 12:19:30;;;;;;;17.70;12.05;;;3.40;99.90;;;;;;4964890;28;20057;-80
2021/01/04 12:22:01;;;;;;;18.90;13.77;;;3.50;99.90;;;;;;4974146;28;20054;-79
2021/01/04 12:24:27;;;;;;;19.08;11.02;;;3.50;99.90;;;;;;4966166;28;20066;-80
2021/01/04 12:27:00;;;;;;;18.35;11.40;;;3.40;99.90;;;;;;4965466;28;20126;-79
2021/01/04 12:29:28;;;;;;;15.55;10.82;;;3.40;99.90;;;;;;4972063;28;20085;-78
2021/01/04 12:31:54;;;;;;;16.30;12.48;;;3.50;99.90;;;;;;4962862;28;20083;-79
2021/01/04 12:34:20;;;;;;;14.88;10.52;;;3.50;99.90;;;;;;4973584;28;20106;-79
2021/01/04 12:36:47;;;;;;;14.68;10.50;;;3.50;99.90;;;;;;4966429;28;20054;-80
2021/01/04 12:39:14;;;;;;;15.70;10.80;;;3.40;99.90;;;;;;4976292;28;20093;-79
2021/01/04 12:41:41;;;;;;;15.95;10.80;;;3.50;99.90;;;;;;4959823;28;20086;-79
2021/01/04 12:44:10;;;;;;;17.70;12.02;;;3.50;99.90;;;;;;4970732;28;20074;-79
2021/01/04 12:46:43;;;;;;;16.00;11.52;;;3.50;99.90;;;;;;4964794;28;20090;-81
2021/01/04 12:49:10;;;;;;;15.40;11.75;;;3.40;99.90;;;;;;4965861;28;20766;-81
2021/01/04 12:51:37;;;;;;;18.63;11.75;;;3.30;99.90;;;;;;4971935;28;20121;-79
2021/01/04 12:54:04;;;;;;;19.02;12.48;;;3.30;99.90;;;;;;4960215;28;20054;-80
2021/01/04 12:56:30;;;;;;;16.98;11.18;;;3.40;99.90;;;;;;4965670;28;20090;-78
2021/01/04 12:58:56;;;;;;;17.05;10.95;;;3.40;99.90;;;;;;4964750;28;20138;-79
2021/01/04 13:01:26;;;;;;;16.38;11.02;;;3.40;99.90;;;;;;4959483;28;20086;-79
2021/01/04 13:03:55;;;;;;;16.50;11.60;;;3.40;99.90;;;;;;4970581;28;20074;-79
2021/01/04 13:06:23;;;;;;;18.17;11.07;;;3.30;99.90;;;;;;4972131;28;20058;-80
2021/01/04 13:08:50;;;;;;;16.75;10.93;;;3.30;99.90;;;;;;4964615;28;20083;-81
2021/01/04 13:11:16;;;;;;;21.30;14.80;;;3.40;99.90;;;;;;4968138;28;20137;-79
2021/01/04 13:13:43;;;;;;;16.45;11.48;;;3.40;99.90;;;;;;4967147;28;20053;-79
2021/01/04 13:16:10;;;;;;;15.80;11.70;;;3.40;99.90;;;;;;4962676;28;20556;-79
2021/01/04 13:18:36;;;;;;;17.73;13.05;;;3.50;99.90;;;;;;4969054;28;20134;-79
2021/01/04 13:21:04;;;;;;;17.33;11.02;;;3.50;99.90;;;;;;4966822;28;20169;-79
2021/01/04 13:23:30;;;;;;;15.90;11.73;;;3.50;99.90;;;;;;4973048;28;20102;-79
2021/01/04 13:25:57;;;;;;;14.68;10.60;;;3.50;99.90;;;;;;4974253;28;20054;-79
2021/01/04 13:28:23;;;;;;;13.13;9.32;;;3.50;99.90;;;;;;4971275;28;20130;-79